createdAt,value
2018-05-27T00:01:35.610Z,4.50
2018-05-27T00:04:04.647Z,4.30
2018-05-27T00:06:32.910Z,4.53
2018-05-27T00:09:01.164Z,4.23
2018-05-27T00:11:29.413Z,4.60
2018-05-27T00:13:57.712Z,4.70
2018-05-27T00:16:25.934Z,4.50
2018-05-27T00:18:54.205Z,4.60
2018-05-27T00:21:22.420Z,4.57
2018-05-27T00:23:51.452Z,4.60
2018-05-27T00:26:19.677Z,4.63
2018-05-27T00:28:47.941Z,4.40
2018-05-27T00:31:16.184Z,4.60
2018-05-27T00:33:44.568Z,4.73
2018-05-27T00:36:12.813Z,5.20
2018-05-27T00:38:41.059Z,4.83
2018-05-27T00:41:10.195Z,5.00
2018-05-27T00:43:38.443Z,5.17
2018-05-27T00:46:07.454Z,5.07
2018-05-27T00:48:35.720Z,5.50
2018-05-27T00:51:03.973Z,4.97
2018-05-27T00:53:44.035Z,4.57
2018-05-27T00:56:13.031Z,4.47
2018-05-27T00:58:41.287Z,4.43
2018-05-27T01:01:09.547Z,4.83
2018-05-27T01:03:37.797Z,4.83
2018-05-27T01:06:06.833Z,4.70
2018-05-27T01:08:35.876Z,4.50
2018-05-27T01:11:04.121Z,4.90
2018-05-27T01:13:33.138Z,4.93
2018-05-27T01:16:01.400Z,4.67
2018-05-27T01:18:29.690Z,5.43
2018-05-27T01:20:57.935Z,5.03
2018-05-27T01:23:26.947Z,5.00
2018-05-27T01:25:55.212Z,5.00
2018-05-27T01:28:23.459Z,5.03
2018-05-27T01:30:52.082Z,5.03
2018-05-27T01:33:20.330Z,5.40
2018-05-27T01:35:49.342Z,5.23
2018-05-27T01:38:17.598Z,5.20
2018-05-27T01:40:46.625Z,5.53
2018-05-27T01:43:14.888Z,5.50
2018-05-27T01:45:43.135Z,5.90
2018-05-27T01:48:12.290Z,6.20
2018-05-27T01:50:40.540Z,5.93
2018-05-27T01:53:08.796Z,5.43
2018-05-27T01:55:37.824Z,5.73
2018-05-27T01:58:06.081Z,5.97
2018-05-27T02:00:34.336Z,5.60
2018-05-27T02:03:02.579Z,5.93
2018-05-27T02:05:30.823Z,6.33
2018-05-27T02:07:59.139Z,6.20
2018-05-27T02:10:28.150Z,6.23
2018-05-27T02:12:57.168Z,6.63
2018-05-27T02:15:25.411Z,6.70
2018-05-27T02:17:54.437Z,5.83
2018-05-27T02:20:22.883Z,6.40
2018-05-27T02:22:51.903Z,7.27
2018-05-27T02:25:20.145Z,6.03
2018-05-27T02:27:49.305Z,5.73
2018-05-27T02:30:17.553Z,6.20
2018-05-27T02:32:45.800Z,6.60
2018-05-27T02:35:14.951Z,6.40
2018-05-27T02:37:43.199Z,7.40
2018-05-27T02:40:11.452Z,6.20
2018-05-27T02:42:40.607Z,6.87
2018-05-27T02:45:08.860Z,6.27
2018-05-27T02:47:37.238Z,6.93
2018-05-27T02:50:06.257Z,6.70
2018-05-27T02:52:34.500Z,7.30
2018-05-27T02:55:02.761Z,6.30
2018-05-27T02:57:30.995Z,6.57
2018-05-27T03:00:00.016Z,6.73
2018-05-27T03:02:28.262Z,7.13
2018-05-27T03:04:57.276Z,7.00
2018-05-27T03:07:25.528Z,6.60
2018-05-27T03:09:54.561Z,6.70
2018-05-27T03:12:22.799Z,7.43
2018-05-27T03:14:51.924Z,7.27
2018-05-27T03:17:20.166Z,7.50
2018-05-27T03:19:49.378Z,7.53
2018-05-27T03:22:17.631Z,7.50
2018-05-27T03:24:45.881Z,7.73
2018-05-27T03:27:14.327Z,7.20
2018-05-27T03:29:42.566Z,7.23
2018-05-27T03:32:11.583Z,6.90
2018-05-27T03:34:39.840Z,6.90
2018-05-27T03:37:08.872Z,7.00
2018-05-27T03:39:37.127Z,6.90
2018-05-27T03:42:05.376Z,6.80
2018-05-27T03:44:34.409Z,6.43
2018-05-27T03:47:02.659Z,6.90
2018-05-27T03:49:30.902Z,6.50
2018-05-27T03:51:59.188Z,6.80
2018-05-27T03:54:27.417Z,6.33
2018-05-27T03:56:55.664Z,6.50
2018-05-27T03:59:23.936Z,6.60
2018-05-27T04:01:52.948Z,6.60
2018-05-27T04:04:32.982Z,6.43
2018-05-27T04:07:13.155Z,6.20
2018-05-27T04:09:41.728Z,6.20
2018-05-27T04:12:09.971Z,6.43
2018-05-27T04:14:38.987Z,6.40
2018-05-27T04:17:07.239Z,6.07
2018-05-27T04:19:36.244Z,5.70
2018-05-27T04:22:05.260Z,5.90
2018-05-27T04:24:33.513Z,5.90
2018-05-27T04:27:02.524Z,5.73
2018-05-27T04:29:30.763Z,5.87
2018-05-27T04:31:59.845Z,6.00
2018-05-27T04:34:28.075Z,6.40
2018-05-27T04:36:56.330Z,5.83
2018-05-27T04:39:24.567Z,6.00
2018-05-27T04:41:52.824Z,5.90
2018-05-27T04:44:21.088Z,5.47
2018-05-27T04:46:49.341Z,6.47
2018-05-27T04:49:17.588Z,6.07
2018-05-27T04:51:46.611Z,5.60
2018-05-27T04:54:14.852Z,6.50
2018-05-27T04:56:43.876Z,6.00
2018-05-27T04:59:12.120Z,6.23
2018-05-27T05:01:41.127Z,6.60
2018-05-27T05:04:09.392Z,6.13
2018-05-27T05:06:38.398Z,6.03
2018-05-27T05:09:06.659Z,6.00
2018-05-27T05:11:35.671Z,5.13
2018-05-27T05:14:03.928Z,6.40
2018-05-27T05:16:32.929Z,6.13
2018-05-27T05:19:01.188Z,6.47
2018-05-27T05:21:30.193Z,6.33
2018-05-27T05:23:58.445Z,5.70
2018-05-27T05:26:26.709Z,5.23
2018-05-27T05:28:54.939Z,5.87
2018-05-27T05:31:23.208Z,5.23
2018-05-27T05:33:51.468Z,5.60
2018-05-27T05:36:19.723Z,5.57
2018-05-27T05:38:48.175Z,5.47
2018-05-27T05:41:16.433Z,5.20
2018-05-27T05:43:44.692Z,5.27
2018-05-27T05:46:12.936Z,5.93
2018-05-27T05:48:41.945Z,5.77
2018-05-27T05:51:10.210Z,5.47
2018-05-27T05:53:39.214Z,5.27
2018-05-27T05:56:07.476Z,5.40
2018-05-27T05:58:36.510Z,5.60
2018-05-27T06:01:04.751Z,5.23
2018-05-27T06:03:33.014Z,5.07
2018-05-27T06:06:02.029Z,5.13
2018-05-27T06:08:30.497Z,5.33
2018-05-27T06:10:59.515Z,4.97
2018-05-27T06:13:27.790Z,5.17
2018-05-27T06:15:56.036Z,4.87
2018-05-27T06:18:25.057Z,5.43
2018-05-27T06:20:53.450Z,5.20
2018-05-27T06:23:21.683Z,4.60
2018-05-27T06:25:49.968Z,4.90
2018-05-27T06:28:18.343Z,4.80
2018-05-27T06:30:46.605Z,4.47
2018-05-27T06:33:15.602Z,4.40
2018-05-27T06:35:43.864Z,4.33
2018-05-27T06:38:12.871Z,4.33
2018-05-27T06:40:41.123Z,4.90
2018-05-27T06:43:09.384Z,4.97
2018-05-27T06:45:37.623Z,4.37
2018-05-27T06:48:05.992Z,4.00
2018-05-27T06:50:34.252Z,4.27
2018-05-27T06:53:02.505Z,3.80
2018-05-27T06:55:31.831Z,4.30
2018-05-27T06:58:00.079Z,4.13
2018-05-27T07:00:29.091Z,4.40
2018-05-27T07:02:57.353Z,4.03
2018-05-27T07:05:26.375Z,4.00
2018-05-27T07:07:54.637Z,4.10
2018-05-27T07:10:22.883Z,4.33
2018-05-27T07:12:51.152Z,4.53
2018-05-27T07:15:19.392Z,4.30
2018-05-27T07:17:47.647Z,3.73
2018-05-27T07:20:15.891Z,4.03
2018-05-27T07:22:44.911Z,4.40
2018-05-27T07:25:13.151Z,4.00
2018-05-27T07:27:42.168Z,3.73
2018-05-27T07:30:10.432Z,4.60
2018-05-27T07:32:39.448Z,3.90
2018-05-27T07:35:07.690Z,4.03
2018-05-27T07:37:37.025Z,3.77
2018-05-27T07:40:05.269Z,4.20
2018-05-27T07:42:34.287Z,4.07
2018-05-27T07:45:02.555Z,4.13
2018-05-27T07:47:30.799Z,4.13
2018-05-27T07:49:59.810Z,4.30
2018-05-27T07:52:28.090Z,4.10
2018-05-27T07:54:57.136Z,4.17
2018-05-27T07:57:25.395Z,4.17
2018-05-27T07:59:53.648Z,3.60
2018-05-27T08:02:21.881Z,3.77
2018-05-27T08:04:50.944Z,3.80
2018-05-27T08:07:19.160Z,4.03
2018-05-27T08:09:48.164Z,4.03
2018-05-27T08:12:16.428Z,3.57
2018-05-27T08:14:45.450Z,4.33
2018-05-27T08:17:13.699Z,4.53
2018-05-27T08:19:42.734Z,4.20
2018-05-27T08:22:10.962Z,4.07
2018-05-27T08:24:39.998Z,4.40
2018-05-27T08:27:08.266Z,4.50
2018-05-27T08:29:36.537Z,4.00
2018-05-27T08:32:04.791Z,4.30
2018-05-27T08:34:33.072Z,4.33
2018-05-27T08:37:01.331Z,4.10
2018-05-27T08:39:30.356Z,4.53
2018-05-27T08:41:58.655Z,3.33
2018-05-27T08:44:26.900Z,3.80
2018-05-27T08:46:55.168Z,4.50
2018-05-27T08:49:23.429Z,4.40
2018-05-27T08:51:51.688Z,4.03
2018-05-27T08:54:19.939Z,4.20
2018-05-27T08:56:48.206Z,4.50
2018-05-27T08:59:17.232Z,4.60
2018-05-27T09:01:46.245Z,4.77
2018-05-27T09:04:15.272Z,4.53
2018-05-27T09:06:43.536Z,4.50
2018-05-27T09:09:12.565Z,4.73
2018-05-27T09:11:40.823Z,4.60
2018-05-27T09:14:09.070Z,4.70
2018-05-27T09:16:37.344Z,4.17
2018-05-27T09:19:05.590Z,4.20
2018-05-27T09:21:34.600Z,4.60
2018-05-27T09:24:03.196Z,4.30
2018-05-27T09:26:31.448Z,4.73
2018-05-27T09:29:00.461Z,4.90
2018-05-27T09:31:28.744Z,4.40
2018-05-27T09:33:57.038Z,5.00
2018-05-27T09:36:25.325Z,4.87
2018-05-27T09:38:53.558Z,4.57
2018-05-27T09:41:21.819Z,4.53
2018-05-27T09:43:50.064Z,4.70
2018-05-27T09:46:18.327Z,4.20
2018-05-27T09:48:46.595Z,4.43
2018-05-27T09:51:14.839Z,4.40
2018-05-27T09:53:43.083Z,3.97
2018-05-27T09:56:12.119Z,4.40
2018-05-27T09:58:40.358Z,4.27
2018-05-27T10:01:09.402Z,4.10
2018-05-27T10:03:37.637Z,4.23
2018-05-27T10:06:05.886Z,4.90
2018-05-27T10:08:34.132Z,4.53
2018-05-27T10:11:02.375Z,4.43
2018-05-27T10:13:30.920Z,4.90
2018-05-27T10:15:59.929Z,4.23
2018-05-27T10:18:28.183Z,4.30
2018-05-27T10:20:57.214Z,4.47
2018-05-27T10:23:25.452Z,4.50
2018-05-27T10:25:54.551Z,4.30
2018-05-27T10:28:22.735Z,4.17
2018-05-27T10:30:51.768Z,4.00
2018-05-27T10:33:20.059Z,4.50
2018-05-27T10:35:48.319Z,4.10
2018-05-27T10:38:16.574Z,4.10
2018-05-27T10:40:44.816Z,4.40
2018-05-27T10:43:13.870Z,3.97
2018-05-27T10:45:42.103Z,4.60
2018-05-27T10:48:10.368Z,4.17
2018-05-27T10:50:39.388Z,4.00
2018-05-27T10:53:07.643Z,4.30
2018-05-27T10:55:35.921Z,4.87
2018-05-27T10:58:04.945Z,4.23
2018-05-27T11:00:33.207Z,3.90
2018-05-27T11:03:01.493Z,4.00
2018-05-27T11:05:29.731Z,3.93
2018-05-27T11:07:58.758Z,3.17
2018-05-27T11:10:27.012Z,3.30
2018-05-27T11:12:56.049Z,3.57
2018-05-27T11:15:24.287Z,3.40
2018-05-27T11:17:52.552Z,3.60
2018-05-27T11:20:20.803Z,3.43
2018-05-27T11:22:49.814Z,3.27
2018-05-27T11:25:18.087Z,3.47
2018-05-27T11:27:46.413Z,3.57
2018-05-27T11:30:14.640Z,3.63
2018-05-27T11:32:42.908Z,3.83
2018-05-27T11:35:11.907Z,4.10
2018-05-27T11:37:40.171Z,4.00
2018-05-27T11:40:09.203Z,3.67
2018-05-27T11:42:37.467Z,3.50
2018-05-27T11:45:05.734Z,3.40
2018-05-27T11:47:33.972Z,3.73
2018-05-27T11:50:02.252Z,3.37
2018-05-27T11:52:30.555Z,3.97
2018-05-27T11:54:58.799Z,3.80
2018-05-27T11:57:27.063Z,3.10
2018-05-27T11:59:55.303Z,3.60
2018-05-27T12:02:23.563Z,3.73
2018-05-27T12:04:52.581Z,3.80
2018-05-27T12:07:20.825Z,3.70
2018-05-27T12:09:49.085Z,3.70
2018-05-27T12:12:18.126Z,3.50
2018-05-27T12:14:46.380Z,3.43
2018-05-27T12:17:14.646Z,3.30
2018-05-27T12:19:43.073Z,3.33
2018-05-27T12:22:11.329Z,3.40
2018-05-27T12:24:39.598Z,3.80
2018-05-27T12:27:07.877Z,3.53
2018-05-27T12:29:36.126Z,3.67
2018-05-27T12:32:04.397Z,3.37
2018-05-27T12:34:32.684Z,3.70
2018-05-27T12:37:00.948Z,3.40
2018-05-27T12:39:29.237Z,3.33
2018-05-27T12:41:57.510Z,3.10
2018-05-27T12:44:26.018Z,3.37
2018-05-27T12:46:55.450Z,2.73
2018-05-27T12:49:23.672Z,3.27
2018-05-27T12:51:52.000Z,3.10
2018-05-27T12:54:21.043Z,3.67
2018-05-27T12:56:49.300Z,3.50
2018-05-27T12:59:17.569Z,3.60
2018-05-27T13:01:45.895Z,4.00
2018-05-27T13:04:14.119Z,3.60
2018-05-27T13:06:42.387Z,3.73
2018-05-27T13:09:11.494Z,3.60
2018-05-27T13:11:39.743Z,3.57
2018-05-27T13:14:08.762Z,3.53
2018-05-27T13:16:37.088Z,3.30
2018-05-27T13:19:06.038Z,3.57
2018-05-27T13:21:34.306Z,3.37
2018-05-27T13:24:02.560Z,3.10
2018-05-27T13:26:31.570Z,3.70
2018-05-27T13:29:00.161Z,3.40
2018-05-27T13:31:28.416Z,3.63
2018-05-27T13:33:56.671Z,3.40
2018-05-27T13:36:25.896Z,3.17
2018-05-27T13:38:54.147Z,3.60
2018-05-27T13:41:23.151Z,3.67
2018-05-27T13:43:51.414Z,3.93
2018-05-27T13:46:20.435Z,3.60
2018-05-27T13:48:48.682Z,3.50
2018-05-27T13:51:17.974Z,3.80
2018-05-27T13:53:46.225Z,4.03
2018-05-27T13:56:15.272Z,3.77
2018-05-27T13:58:43.791Z,3.57
2018-05-27T14:01:12.063Z,3.80
2018-05-27T14:03:40.511Z,3.20
2018-05-27T14:06:08.869Z,3.37
2018-05-27T14:08:37.059Z,3.60
2018-05-27T14:11:05.320Z,3.57
2018-05-27T14:13:34.411Z,3.17
2018-05-27T14:16:03.582Z,3.00
2018-05-27T14:18:31.876Z,3.60
2018-05-27T14:21:00.939Z,3.43
2018-05-27T14:23:29.331Z,3.57
2018-05-27T14:25:57.644Z,3.40
2018-05-27T14:28:26.671Z,3.47
2018-05-27T14:30:55.067Z,3.30
2018-05-27T14:33:23.317Z,3.30
2018-05-27T14:35:51.572Z,3.27
2018-05-27T14:38:19.827Z,3.93
2018-05-27T14:40:48.107Z,3.40
2018-05-27T14:43:17.132Z,3.20
2018-05-27T14:45:45.404Z,3.70
2018-05-27T14:48:13.659Z,3.40
2018-05-27T14:50:41.912Z,3.40
2018-05-27T14:53:10.975Z,3.70
2018-05-27T14:55:39.220Z,3.67
2018-05-27T14:58:07.525Z,3.70
2018-05-27T15:00:35.743Z,3.67
2018-05-27T15:03:04.008Z,3.70
2018-05-27T15:05:33.041Z,3.50
2018-05-27T15:08:01.386Z,3.27
2018-05-27T15:10:30.433Z,3.23
2018-05-27T15:12:58.699Z,3.70
2018-05-27T15:15:26.962Z,3.70
2018-05-27T15:17:55.212Z,3.50
2018-05-27T15:20:23.706Z,3.60
2018-05-27T15:22:51.987Z,4.07
2018-05-27T15:25:20.240Z,3.37
2018-05-27T15:27:48.475Z,3.43
2018-05-27T15:30:16.729Z,3.90
2018-05-27T15:32:45.346Z,4.20
2018-05-27T15:35:14.791Z,4.60
2018-05-27T15:37:44.646Z,4.93
2018-05-27T15:40:12.915Z,5.20
2018-05-27T15:42:41.155Z,3.90
2018-05-27T15:45:09.417Z,4.60
2018-05-27T15:47:37.669Z,5.00
2018-05-27T15:50:06.704Z,4.70
2018-05-27T15:52:34.971Z,4.33
2018-05-27T15:55:03.523Z,4.90
2018-05-27T15:57:32.549Z,4.77
2018-05-27T16:00:00.911Z,4.70
2018-05-27T16:02:29.155Z,4.87
2018-05-27T16:04:57.397Z,4.97
2018-05-27T16:07:25.652Z,5.27
2018-05-27T16:09:53.939Z,5.63
2018-05-27T16:12:22.177Z,5.80
2018-05-27T16:14:50.452Z,4.90
2018-05-27T16:17:19.475Z,4.90
2018-05-27T16:19:47.728Z,5.17
2018-05-27T16:22:15.995Z,5.77
2018-05-27T16:24:45.036Z,5.13
2018-05-27T16:27:14.071Z,5.37
2018-05-27T16:29:43.092Z,5.40
2018-05-27T16:32:11.343Z,5.77
2018-05-27T16:34:40.409Z,6.73
2018-05-27T16:37:08.663Z,6.00
2018-05-27T16:39:36.944Z,6.50
2018-05-27T16:42:05.216Z,4.93
2018-05-27T16:44:34.232Z,5.30
2018-05-27T16:47:02.499Z,5.53
2018-05-27T16:49:30.767Z,4.97
2018-05-27T16:51:59.023Z,5.10
2018-05-27T16:54:27.282Z,4.83
2018-05-27T16:56:55.538Z,4.87
2018-05-27T16:59:23.817Z,4.87
2018-05-27T17:01:52.063Z,5.10
2018-05-27T17:04:21.101Z,5.23
2018-05-27T17:06:49.623Z,5.60
2018-05-27T17:09:17.877Z,5.17
2018-05-27T17:11:46.140Z,4.80
2018-05-27T17:14:14.434Z,5.20
2018-05-27T17:16:42.696Z,5.40
2018-05-27T17:19:10.967Z,5.00
2018-05-27T17:21:39.286Z,4.70
2018-05-27T17:24:07.545Z,4.97
2018-05-27T17:26:35.849Z,5.10
2018-05-27T17:29:06.295Z,5.20
2018-05-27T17:31:34.558Z,5.23
2018-05-27T17:34:03.597Z,5.07
2018-05-27T17:36:31.843Z,4.43
2018-05-27T17:39:00.092Z,4.70
2018-05-27T17:41:29.142Z,4.50
2018-05-27T17:43:57.396Z,5.00
2018-05-27T17:46:25.635Z,4.70
2018-05-27T17:48:54.647Z,4.50
2018-05-27T17:51:22.895Z,4.77
2018-05-27T17:53:52.529Z,4.57
2018-05-27T17:56:20.772Z,4.80
2018-05-27T17:58:49.810Z,4.67
2018-05-27T18:01:18.061Z,4.60
2018-05-27T18:03:47.313Z,5.10
2018-05-27T18:06:15.536Z,4.50
2018-05-27T18:08:43.939Z,4.70
2018-05-27T18:11:12.226Z,4.73
2018-05-27T18:13:40.473Z,4.33
2018-05-27T18:16:08.753Z,4.43
2018-05-27T18:18:37.007Z,4.50
2018-05-27T18:21:06.052Z,4.50
2018-05-27T18:23:35.065Z,4.70
2018-05-27T18:26:03.338Z,4.33
2018-05-27T18:28:31.577Z,4.80
2018-05-27T18:31:00.007Z,4.80
2018-05-27T18:33:28.250Z,4.90
2018-05-27T18:35:57.264Z,5.20
2018-05-27T18:38:25.560Z,5.43
2018-05-27T18:40:54.554Z,5.07
2018-05-27T18:43:22.809Z,5.63
2018-05-27T18:45:51.079Z,4.67
2018-05-27T18:48:19.353Z,5.20
2018-05-27T18:50:47.603Z,5.20
2018-05-27T18:53:15.873Z,5.20
2018-05-27T18:55:44.127Z,5.40
2018-05-27T18:58:12.835Z,5.30
2018-05-27T19:00:41.360Z,4.90
2018-05-27T19:03:10.390Z,5.50
2018-05-27T19:05:38.654Z,5.70
2018-05-27T19:08:06.927Z,5.83
2018-05-27T19:10:35.182Z,5.50
2018-05-27T19:13:04.280Z,5.73
2018-05-27T19:15:32.511Z,5.70
2018-05-27T19:18:01.517Z,6.13
2018-05-27T19:20:29.849Z,6.07
2018-05-27T19:22:58.096Z,5.77
2018-05-27T19:25:27.153Z,5.67
2018-05-27T19:27:56.184Z,6.20
2018-05-27T19:30:24.413Z,6.10
2018-05-27T19:32:52.687Z,6.27
2018-05-27T19:35:21.725Z,6.27
2018-05-27T19:37:50.740Z,6.20
2018-05-27T19:40:19.007Z,6.20
2018-05-27T19:42:47.608Z,6.83
2018-05-27T19:45:15.865Z,6.37
2018-05-27T19:47:44.120Z,6.90
2018-05-27T19:50:13.222Z,6.43
2018-05-27T19:52:42.255Z,6.10
2018-05-27T19:55:10.488Z,6.37
2018-05-27T19:57:39.517Z,6.70
2018-05-27T20:00:07.793Z,6.77
2018-05-27T20:02:36.333Z,6.57
2018-05-27T20:05:05.370Z,5.67
2018-05-27T20:07:33.603Z,6.47
2018-05-27T20:10:02.694Z,6.33
2018-05-27T20:12:31.725Z,6.90
2018-05-27T20:15:00.306Z,7.40
2018-05-27T20:17:29.297Z,7.37
2018-05-27T20:19:57.557Z,7.03
2018-05-27T20:22:25.837Z,7.40
2018-05-27T20:24:54.094Z,7.47
2018-05-27T20:27:23.262Z,7.03
2018-05-27T20:29:51.513Z,7.33
2018-05-27T20:32:19.778Z,7.20
2018-05-27T20:34:48.312Z,7.40
2018-05-27T20:37:17.371Z,7.07
2018-05-27T20:39:45.637Z,6.40
2018-05-27T20:42:13.898Z,6.73
2018-05-27T20:44:42.162Z,7.80
2018-05-27T20:47:10.723Z,6.50
2018-05-27T20:49:39.731Z,6.70
2018-05-27T20:52:07.976Z,6.70
2018-05-27T20:54:37.014Z,6.87
2018-05-27T20:57:06.251Z,6.53
2018-05-27T20:59:34.510Z,7.03
2018-05-27T21:02:02.768Z,7.90
2018-05-27T21:04:31.039Z,7.47
2018-05-27T21:06:59.297Z,6.90
2018-05-27T21:09:27.543Z,6.90
2018-05-27T21:11:56.563Z,7.27
2018-05-27T21:14:24.828Z,7.63
2018-05-27T21:16:53.231Z,8.87
2018-05-27T21:19:21.485Z,9.30
2018-05-27T21:21:49.734Z,8.40
2018-05-27T21:24:18.772Z,8.33
2018-05-27T21:26:47.019Z,8.60
2018-05-27T21:29:15.279Z,8.53
2018-05-27T21:31:44.292Z,9.57
2018-05-27T21:34:12.546Z,9.30
2018-05-27T21:36:41.579Z,8.57
2018-05-27T21:39:09.842Z,9.43
2018-05-27T21:41:38.131Z,9.87
2018-05-27T21:44:06.360Z,9.60
2018-05-27T21:46:35.398Z,10.00
2018-05-27T21:49:03.799Z,9.77
2018-05-27T21:51:32.063Z,10.00
2018-05-27T21:54:00.331Z,9.70
2018-05-27T21:56:28.591Z,9.90
2018-05-27T21:58:56.854Z,11.00
2018-05-27T22:01:25.142Z,10.20
2018-05-27T22:03:53.391Z,8.60
2018-05-27T22:06:22.316Z,9.00
2018-05-27T22:08:50.585Z,8.93
2018-05-27T22:11:18.844Z,8.63
2018-05-27T22:13:47.243Z,8.63
2018-05-27T22:16:15.493Z,8.57
2018-05-27T22:18:43.756Z,10.33
2018-05-27T22:21:12.835Z,10.00
2018-05-27T22:23:41.459Z,9.20
2018-05-27T22:26:09.720Z,9.73
2018-05-27T22:28:37.971Z,8.47
2018-05-27T22:31:07.147Z,9.40
2018-05-27T22:33:35.396Z,8.10
2018-05-27T22:36:03.655Z,8.47
2018-05-27T22:38:31.915Z,7.90
2018-05-27T22:41:00.199Z,7.87
2018-05-27T22:43:28.452Z,7.67
2018-05-27T22:45:57.483Z,8.63
2018-05-27T22:48:25.764Z,8.27
2018-05-27T22:50:54.003Z,9.00
2018-05-27T22:53:23.010Z,9.20
2018-05-27T22:55:51.432Z,10.47
2018-05-27T22:58:19.685Z,9.57
2018-05-27T23:00:47.933Z,8.00
2018-05-27T23:03:16.958Z,8.50
2018-05-27T23:05:45.203Z,8.93
2018-05-27T23:08:13.452Z,9.27
2018-05-27T23:10:42.485Z,9.30
2018-05-27T23:13:10.738Z,9.53
2018-05-27T23:15:39.048Z,9.23
2018-05-27T23:18:07.460Z,8.87
2018-05-27T23:20:35.703Z,8.17
2018-05-27T23:23:03.951Z,9.03
2018-05-27T23:25:32.214Z,9.67
2018-05-27T23:28:00.486Z,9.13
2018-05-27T23:30:28.754Z,7.63
2018-05-27T23:32:57.759Z,8.07
2018-05-27T23:35:26.011Z,8.03
2018-05-27T23:37:55.144Z,7.90
2018-05-27T23:40:23.387Z,8.40
2018-05-27T23:42:52.420Z,8.27
2018-05-27T23:45:20.965Z,8.27
2018-05-27T23:47:49.979Z,9.43
2018-05-27T23:50:19.391Z,9.00
2018-05-27T23:52:47.951Z,8.67
2018-05-27T23:55:16.190Z,7.93
2018-05-27T23:57:44.463Z,8.60
